sensor_id;sensor_type;location;lat;lon;timestamp;P1;durP1;ratioP1;P2;durP2;ratioP2
1569;SDS011;778;50.120;8.698;2023-05-10T00:00:12;3.20;;;2.30;;
1569;SDS011;778;50.120;8.698;2023-05-10T00:02:42;2.43;;;2.23;;
1569;SDS011;778;50.120;8.698;2023-05-10T00:05:11;2.77;;;2.57;;
1569;SDS011;778;50.120;8.698;2023-05-10T00:07:40;2.77;;;2.67;;
1569;SDS011;778;50.120;8.698;2023-05-10T00:10:11;3.23;;;2.93;;
1569;SDS011;778;50.120;8.698;2023-05-10T00:12:40;4.00;;;3.53;;
1569;SDS011;778;50.120;8.698;2023-05-10T00:15:09;5.63;;;2.67;;
1569;SDS011;778;50.120;8.698;2023-05-10T00:17:38;4.20;;;3.67;;
1569;SDS011;778;50.120;8.698;2023-05-10T00:20:07;2.80;;;2.60;;
1569;SDS011;778;50.120;8.698;2023-05-10T00:22:37;2.53;;;2.33;;
1569;SDS011;778;50.120;8.698;2023-05-10T00:25:08;2.93;;;2.20;;
1569;SDS011;778;50.120;8.698;2023-05-10T00:27:37;2.70;;;2.50;;
1569;SDS011;778;50.120;8.698;2023-05-10T00:30:05;2.00;;;1.80;;
1569;SDS011;778;50.120;8.698;2023-05-10T00:32:35;1.70;;;1.60;;
1569;SDS011;778;50.120;8.698;2023-05-10T00:35:04;1.30;;;1.30;;
1569;SDS011;778;50.120;8.698;2023-05-10T00:37:33;1.83;;;1.63;;
1569;SDS011;778;50.120;8.698;2023-05-10T00:40:01;2.10;;;1.30;;
1569;SDS011;778;50.120;8.698;2023-05-10T00:42:32;1.47;;;1.17;;
1569;SDS011;778;50.120;8.698;2023-05-10T00:45:01;2.20;;;1.40;;
1569;SDS011;778;50.120;8.698;2023-05-10T00:47:29;1.60;;;1.50;;
1569;SDS011;778;50.120;8.698;2023-05-10T00:49:58;5.13;;;1.23;;
1569;SDS011;778;50.120;8.698;2023-05-10T00:52:30;1.20;;;1.20;;
1569;SDS011;778;50.120;8.698;2023-05-10T00:54:59;1.17;;;1.07;;
1569;SDS011;778;50.120;8.698;2023-05-10T00:57:28;1.20;;;1.10;;
1569;SDS011;778;50.120;8.698;2023-05-10T00:59:59;0.90;;;0.73;;
1569;SDS011;778;50.120;8.698;2023-05-10T01:02:27;0.80;;;0.80;;
1569;SDS011;778;50.120;8.698;2023-05-10T01:04:56;1.33;;;0.90;;
1569;SDS011;778;50.120;8.698;2023-05-10T01:07:24;0.93;;;0.80;;
1569;SDS011;778;50.120;8.698;2023-05-10T01:09:53;1.20;;;0.63;;
1569;SDS011;778;50.120;8.698;2023-05-10T01:12:21;1.10;;;0.93;;
1569;SDS011;778;50.120;8.698;2023-05-10T01:14:50;0.90;;;0.77;;
1569;SDS011;778;50.120;8.698;2023-05-10T01:17:20;0.80;;;0.80;;
1569;SDS011;778;50.120;8.698;2023-05-10T01:19:49;0.77;;;0.50;;
1569;SDS011;778;50.120;8.698;2023-05-10T01:22:27;1.70;;;0.77;;
1569;SDS011;778;50.120;8.698;2023-05-10T01:25:22;0.50;;;0.50;;
1569;SDS011;778;50.120;8.698;2023-05-10T01:28:20;2.30;;;0.60;;
1569;SDS011;778;50.120;8.698;2023-05-10T01:31:30;1.67;;;1.07;;
1569;SDS011;778;50.120;8.698;2023-05-10T01:34:32;1.33;;;0.40;;
1569;SDS011;778;50.120;8.698;2023-05-10T01:37:06;1.07;;;0.70;;
1569;SDS011;778;50.120;8.698;2023-05-10T01:39:40;1.53;;;0.70;;
1569;SDS011;778;50.120;8.698;2023-05-10T01:42:16;1.00;;;0.60;;
1569;SDS011;778;50.120;8.698;2023-05-10T01:44:53;1.27;;;0.60;;
1569;SDS011;778;50.120;8.698;2023-05-10T01:47:30;0.70;;;0.70;;
1569;SDS011;778;50.120;8.698;2023-05-10T01:50:08;0.90;;;0.60;;
1569;SDS011;778;50.120;8.698;2023-05-10T01:52:46;0.83;;;0.60;;
1569;SDS011;778;50.120;8.698;2023-05-10T01:55:20;2.20;;;0.80;;
1569;SDS011;778;50.120;8.698;2023-05-10T01:57:53;0.70;;;0.70;;
1569;SDS011;778;50.120;8.698;2023-05-10T02:00:29;2.30;;;1.00;;
1569;SDS011;778;50.120;8.698;2023-05-10T02:03:00;1.70;;;0.70;;
1569;SDS011;778;50.120;8.698;2023-05-10T02:05:34;1.00;;;0.80;;
1569;SDS011;778;50.120;8.698;2023-05-10T02:08:05;0.77;;;0.70;;
1569;SDS011;778;50.120;8.698;2023-05-10T02:10:35;0.90;;;0.60;;
1569;SDS011;778;50.120;8.698;2023-05-10T02:13:06;1.37;;;0.50;;
1569;SDS011;778;50.120;8.698;2023-05-10T02:15:35;0.97;;;0.90;;
1569;SDS011;778;50.120;8.698;2023-05-10T02:18:06;1.03;;;0.93;;
1569;SDS011;778;50.120;8.698;2023-05-10T02:20:38;0.80;;;0.80;;
1569;SDS011;778;50.120;8.698;2023-05-10T02:23:07;0.80;;;0.80;;
1569;SDS011;778;50.120;8.698;2023-05-10T02:25:37;1.63;;;0.60;;
1569;SDS011;778;50.120;8.698;2023-05-10T02:28:06;1.73;;;0.70;;
1569;SDS011;778;50.120;8.698;2023-05-10T02:30:36;0.90;;;0.73;;
1569;SDS011;778;50.120;8.698;2023-05-10T02:33:05;2.63;;;0.70;;
1569;SDS011;778;50.120;8.698;2023-05-10T02:35:34;1.97;;;0.73;;
1569;SDS011;778;50.120;8.698;2023-05-10T02:38:04;1.77;;;0.70;;
1569;SDS011;778;50.120;8.698;2023-05-10T02:40:35;1.70;;;0.70;;
1569;SDS011;778;50.120;8.698;2023-05-10T02:43:05;1.27;;;0.90;;
1569;SDS011;778;50.120;8.698;2023-05-10T02:45:37;0.63;;;0.60;;
1569;SDS011;778;50.120;8.698;2023-05-10T02:48:08;0.90;;;0.70;;
1569;SDS011;778;50.120;8.698;2023-05-10T02:50:37;1.43;;;0.90;;
1569;SDS011;778;50.120;8.698;2023-05-10T02:53:14;2.07;;;0.73;;
1569;SDS011;778;50.120;8.698;2023-05-10T02:55:48;0.77;;;0.77;;
1569;SDS011;778;50.120;8.698;2023-05-10T02:58:19;2.20;;;0.67;;
1569;SDS011;778;50.120;8.698;2023-05-10T03:00:49;0.80;;;0.63;;
1569;SDS011;778;50.120;8.698;2023-05-10T03:03:18;2.20;;;1.27;;
1569;SDS011;778;50.120;8.698;2023-05-10T03:05:49;1.10;;;0.70;;
1569;SDS011;778;50.120;8.698;2023-05-10T03:08:21;1.03;;;0.93;;
1569;SDS011;778;50.120;8.698;2023-05-10T03:10:54;1.20;;;1.10;;
1569;SDS011;778;50.120;8.698;2023-05-10T03:13:35;1.87;;;0.80;;
1569;SDS011;778;50.120;8.698;2023-05-10T03:16:12;0.93;;;0.90;;
1569;SDS011;778;50.120;8.698;2023-05-10T03:18:46;1.50;;;0.80;;
1569;SDS011;778;50.120;8.698;2023-05-10T03:21:21;1.50;;;1.07;;
1569;SDS011;778;50.120;8.698;2023-05-10T03:23:56;1.00;;;1.00;;
1569;SDS011;778;50.120;8.698;2023-05-10T03:26:34;1.50;;;1.03;;
1569;SDS011;778;50.120;8.698;2023-05-10T03:29:09;0.90;;;0.90;;
1569;SDS011;778;50.120;8.698;2023-05-10T03:31:39;1.03;;;0.90;;
1569;SDS011;778;50.120;8.698;2023-05-10T03:34:09;0.80;;;0.70;;
1569;SDS011;778;50.120;8.698;2023-05-10T03:36:37;0.80;;;0.70;;
1569;SDS011;778;50.120;8.698;2023-05-10T03:39:07;1.87;;;0.87;;
1569;SDS011;778;50.120;8.698;2023-05-10T03:41:37;1.37;;;1.00;;
1569;SDS011;778;50.120;8.698;2023-05-10T03:44:05;1.07;;;1.00;;
1569;SDS011;778;50.120;8.698;2023-05-10T03:46:33;1.17;;;1.17;;
1569;SDS011;778;50.120;8.698;2023-05-10T03:49:02;4.30;;;1.30;;
1569;SDS011;778;50.120;8.698;2023-05-10T03:51:30;0.97;;;0.90;;
1569;SDS011;778;50.120;8.698;2023-05-10T03:53:59;2.50;;;1.13;;
1569;SDS011;778;50.120;8.698;2023-05-10T03:56:28;4.20;;;1.00;;
1569;SDS011;778;50.120;8.698;2023-05-10T03:58:59;2.17;;;1.27;;
1569;SDS011;778;50.120;8.698;2023-05-10T04:01:29;1.07;;;1.07;;
1569;SDS011;778;50.120;8.698;2023-05-10T04:03:58;2.20;;;1.10;;
1569;SDS011;778;50.120;8.698;2023-05-10T04:06:26;1.27;;;1.20;;
1569;SDS011;778;50.120;8.698;2023-05-10T04:08:55;2.30;;;1.40;;
1569;SDS011;778;50.120;8.698;2023-05-10T04:11:26;1.60;;;0.87;;
1569;SDS011;778;50.120;8.698;2023-05-10T04:13:56;0.90;;;0.90;;
1569;SDS011;778;50.120;8.698;2023-05-10T04:16:24;1.00;;;1.00;;
1569;SDS011;778;50.120;8.698;2023-05-10T04:18:53;1.00;;;1.00;;
1569;SDS011;778;50.120;8.698;2023-05-10T04:21:21;2.00;;;1.57;;
1569;SDS011;778;50.120;8.698;2023-05-10T04:23:50;2.37;;;1.17;;
1569;SDS011;778;50.120;8.698;2023-05-10T04:26:18;3.13;;;1.17;;
1569;SDS011;778;50.120;8.698;2023-05-10T04:28:46;3.20;;;1.27;;
1569;SDS011;778;50.120;8.698;2023-05-10T04:31:16;1.67;;;1.03;;
1569;SDS011;778;50.120;8.698;2023-05-10T04:33:45;1.63;;;1.27;;
1569;SDS011;778;50.120;8.698;2023-05-10T04:36:13;3.80;;;1.10;;
1569;SDS011;778;50.120;8.698;2023-05-10T04:38:41;1.20;;;1.10;;
1569;SDS011;778;50.120;8.698;2023-05-10T04:41:10;1.50;;;1.20;;
1569;SDS011;778;50.120;8.698;2023-05-10T04:43:39;3.70;;;1.30;;
1569;SDS011;778;50.120;8.698;2023-05-10T04:46:07;1.90;;;1.23;;
1569;SDS011;778;50.120;8.698;2023-05-10T04:48:37;1.37;;;1.23;;
1569;SDS011;778;50.120;8.698;2023-05-10T04:51:05;1.30;;;1.20;;
1569;SDS011;778;50.120;8.698;2023-05-10T04:53:33;1.20;;;1.20;;
1569;SDS011;778;50.120;8.698;2023-05-10T04:56:02;2.23;;;1.50;;
1569;SDS011;778;50.120;8.698;2023-05-10T04:58:31;1.53;;;1.43;;
1569;SDS011;778;50.120;8.698;2023-05-10T05:01:04;1.60;;;1.50;;
1569;SDS011;778;50.120;8.698;2023-05-10T05:03:34;1.80;;;1.23;;
1569;SDS011;778;50.120;8.698;2023-05-10T05:06:04;1.70;;;1.60;;
1569;SDS011;778;50.120;8.698;2023-05-10T05:08:33;0.93;;;0.93;;
1569;SDS011;778;50.120;8.698;2023-05-10T05:11:02;2.37;;;1.57;;
1569;SDS011;778;50.120;8.698;2023-05-10T05:13:30;1.50;;;1.40;;
1569;SDS011;778;50.120;8.698;2023-05-10T05:16:00;1.90;;;1.80;;
1569;SDS011;778;50.120;8.698;2023-05-10T05:18:29;2.17;;;1.60;;
1569;SDS011;778;50.120;8.698;2023-05-10T05:20:58;1.63;;;1.53;;
1569;SDS011;778;50.120;8.698;2023-05-10T05:23:27;1.60;;;1.50;;
1569;SDS011;778;50.120;8.698;2023-05-10T05:25:56;4.57;;;2.20;;
1569;SDS011;778;50.120;8.698;2023-05-10T05:28:24;6.00;;;1.80;;
1569;SDS011;778;50.120;8.698;2023-05-10T05:30:54;2.60;;;1.70;;
1569;SDS011;778;50.120;8.698;2023-05-10T05:33:23;1.77;;;1.50;;
1569;SDS011;778;50.120;8.698;2023-05-10T05:35:51;2.23;;;1.70;;
1569;SDS011;778;50.120;8.698;2023-05-10T05:38:21;1.93;;;1.83;;
1569;SDS011;778;50.120;8.698;2023-05-10T05:40:50;1.87;;;1.73;;
1569;SDS011;778;50.120;8.698;2023-05-10T05:43:18;1.70;;;1.60;;
1569;SDS011;778;50.120;8.698;2023-05-10T05:45:46;2.60;;;1.80;;
1569;SDS011;778;50.120;8.698;2023-05-10T05:48:15;3.13;;;2.27;;
1569;SDS011;778;50.120;8.698;2023-05-10T05:50:43;2.73;;;2.37;;
1569;SDS011;778;50.120;8.698;2023-05-10T05:53:12;3.17;;;2.87;;
1569;SDS011;778;50.120;8.698;2023-05-10T05:55:45;6.73;;;2.27;;
1569;SDS011;778;50.120;8.698;2023-05-10T05:58:20;5.97;;;2.70;;
1569;SDS011;778;50.120;8.698;2023-05-10T06:00:49;5.53;;;2.50;;
1569;SDS011;778;50.120;8.698;2023-05-10T06:03:18;2.73;;;2.53;;
1569;SDS011;778;50.120;8.698;2023-05-10T06:05:47;5.57;;;2.70;;
1569;SDS011;778;50.120;8.698;2023-05-10T06:08:16;4.40;;;2.93;;
1569;SDS011;778;50.120;8.698;2023-05-10T06:10:45;2.77;;;2.60;;
1569;SDS011;778;50.120;8.698;2023-05-10T06:13:14;4.73;;;3.03;;
1569;SDS011;778;50.120;8.698;2023-05-10T06:15:43;2.83;;;2.60;;
1569;SDS011;778;50.120;8.698;2023-05-10T06:18:11;2.53;;;2.37;;
1569;SDS011;778;50.120;8.698;2023-05-10T06:20:40;7.33;;;2.80;;
1569;SDS011;778;50.120;8.698;2023-05-10T06:23:09;3.27;;;2.97;;
1569;SDS011;778;50.120;8.698;2023-05-10T06:25:38;3.03;;;2.63;;
1569;SDS011;778;50.120;8.698;2023-05-10T06:28:07;2.80;;;2.60;;
1569;SDS011;778;50.120;8.698;2023-05-10T06:30:36;5.77;;;3.07;;
1569;SDS011;778;50.120;8.698;2023-05-10T06:33:04;6.00;;;3.27;;
1569;SDS011;778;50.120;8.698;2023-05-10T06:35:33;5.90;;;3.00;;
1569;SDS011;778;50.120;8.698;2023-05-10T06:38:01;3.27;;;3.07;;
1569;SDS011;778;50.120;8.698;2023-05-10T06:40:30;4.30;;;2.80;;
1569;SDS011;778;50.120;8.698;2023-05-10T06:42:59;3.07;;;2.87;;
1569;SDS011;778;50.120;8.698;2023-05-10T06:45:29;3.17;;;2.70;;
1569;SDS011;778;50.120;8.698;2023-05-10T06:47:57;3.37;;;3.17;;
1569;SDS011;778;50.120;8.698;2023-05-10T06:50:26;3.07;;;2.87;;
1569;SDS011;778;50.120;8.698;2023-05-10T06:52:54;3.37;;;3.10;;
1569;SDS011;778;50.120;8.698;2023-05-10T06:55:23;4.83;;;3.23;;
1569;SDS011;778;50.120;8.698;2023-05-10T06:57:51;5.87;;;3.60;;
1569;SDS011;778;50.120;8.698;2023-05-10T07:00:20;8.00;;;3.83;;
1569;SDS011;778;50.120;8.698;2023-05-10T07:02:50;4.30;;;3.30;;
1569;SDS011;778;50.120;8.698;2023-05-10T07:05:18;4.70;;;3.40;;
1569;SDS011;778;50.120;8.698;2023-05-10T07:07:47;7.93;;;3.40;;
1569;SDS011;778;50.120;8.698;2023-05-10T07:10:16;4.07;;;3.77;;
1569;SDS011;778;50.120;8.698;2023-05-10T07:12:45;4.60;;;2.87;;
1569;SDS011;778;50.120;8.698;2023-05-10T07:15:13;3.83;;;3.30;;
1569;SDS011;778;50.120;8.698;2023-05-10T07:17:42;3.00;;;2.77;;
1569;SDS011;778;50.120;8.698;2023-05-10T07:20:13;4.50;;;2.87;;
1569;SDS011;778;50.120;8.698;2023-05-10T07:22:42;7.47;;;2.40;;
1569;SDS011;778;50.120;8.698;2023-05-10T07:25:10;4.23;;;2.97;;
1569;SDS011;778;50.120;8.698;2023-05-10T07:27:39;3.67;;;2.83;;
1569;SDS011;778;50.120;8.698;2023-05-10T07:30:07;3.50;;;2.83;;
1569;SDS011;778;50.120;8.698;2023-05-10T07:32:37;3.53;;;3.23;;
1569;SDS011;778;50.120;8.698;2023-05-10T07:35:08;4.30;;;3.20;;
1569;SDS011;778;50.120;8.698;2023-05-10T07:37:38;3.30;;;2.93;;
1569;SDS011;778;50.120;8.698;2023-05-10T07:40:07;6.10;;;2.80;;
1569;SDS011;778;50.120;8.698;2023-05-10T07:42:36;3.50;;;2.87;;
1569;SDS011;778;50.120;8.698;2023-05-10T07:45:05;5.50;;;2.97;;
1569;SDS011;778;50.120;8.698;2023-05-10T07:47:35;2.47;;;2.27;;
1569;SDS011;778;50.120;8.698;2023-05-10T07:50:04;3.67;;;2.43;;
1569;SDS011;778;50.120;8.698;2023-05-10T07:52:35;2.87;;;2.67;;
1569;SDS011;778;50.120;8.698;2023-05-10T07:55:06;6.33;;;3.00;;
1569;SDS011;778;50.120;8.698;2023-05-10T07:57:36;4.63;;;2.50;;
1569;SDS011;778;50.120;8.698;2023-05-10T08:00:06;3.30;;;2.60;;
1569;SDS011;778;50.120;8.698;2023-05-10T08:02:39;2.67;;;2.47;;
1569;SDS011;778;50.120;8.698;2023-05-10T08:05:08;7.10;;;3.10;;
1569;SDS011;778;50.120;8.698;2023-05-10T08:07:36;5.63;;;2.87;;
1569;SDS011;778;50.120;8.698;2023-05-10T08:10:08;3.07;;;2.80;;
1569;SDS011;778;50.120;8.698;2023-05-10T08:12:38;6.13;;;3.40;;
1569;SDS011;778;50.120;8.698;2023-05-10T08:15:07;4.87;;;3.43;;
1569;SDS011;778;50.120;8.698;2023-05-10T08:17:37;4.07;;;2.93;;
1569;SDS011;778;50.120;8.698;2023-05-10T08:20:06;6.60;;;3.83;;
1569;SDS011;778;50.120;8.698;2023-05-10T08:22:35;4.60;;;2.50;;
1569;SDS011;778;50.120;8.698;2023-05-10T08:25:04;3.70;;;2.53;;
1569;SDS011;778;50.120;8.698;2023-05-10T08:27:35;2.93;;;2.60;;
1569;SDS011;778;50.120;8.698;2023-05-10T08:30:04;5.13;;;2.53;;
1569;SDS011;778;50.120;8.698;2023-05-10T08:32:34;2.80;;;2.50;;
1569;SDS011;778;50.120;8.698;2023-05-10T08:35:04;3.00;;;2.80;;
1569;SDS011;778;50.120;8.698;2023-05-10T08:37:33;2.73;;;2.53;;
1569;SDS011;778;50.120;8.698;2023-05-10T08:40:02;3.53;;;2.57;;
1569;SDS011;778;50.120;8.698;2023-05-10T08:42:33;2.63;;;2.10;;
1569;SDS011;778;50.120;8.698;2023-05-10T08:45:05;4.77;;;2.57;;
1569;SDS011;778;50.120;8.698;2023-05-10T08:47:35;3.10;;;2.20;;
1569;SDS011;778;50.120;8.698;2023-05-10T08:50:05;2.90;;;2.60;;
1569;SDS011;778;50.120;8.698;2023-05-10T08:52:35;6.27;;;2.67;;
1569;SDS011;778;50.120;8.698;2023-05-10T08:55:08;3.57;;;2.80;;
1569;SDS011;778;50.120;8.698;2023-05-10T08:57:38;3.63;;;2.70;;
1569;SDS011;778;50.120;8.698;2023-05-10T09:00:06;4.53;;;2.43;;
1569;SDS011;778;50.120;8.698;2023-05-10T09:02:37;7.20;;;2.60;;
1569;SDS011;778;50.120;8.698;2023-05-10T09:05:06;3.23;;;2.80;;
1569;SDS011;778;50.120;8.698;2023-05-10T09:07:36;4.63;;;2.50;;
1569;SDS011;778;50.120;8.698;2023-05-10T09:10:05;4.37;;;2.23;;
1569;SDS011;778;50.120;8.698;2023-05-10T09:12:38;3.53;;;2.60;;
1569;SDS011;778;50.120;8.698;2023-05-10T09:15:06;3.50;;;2.50;;
1569;SDS011;778;50.120;8.698;2023-05-10T09:17:37;4.83;;;2.60;;
1569;SDS011;778;50.120;8.698;2023-05-10T09:20:07;5.57;;;2.50;;
1569;SDS011;778;50.120;8.698;2023-05-10T09:22:36;2.43;;;2.23;;
1569;SDS011;778;50.120;8.698;2023-05-10T09:25:06;4.20;;;2.43;;
1569;SDS011;778;50.120;8.698;2023-05-10T09:27:38;4.53;;;2.67;;
1569;SDS011;778;50.120;8.698;2023-05-10T09:30:08;8.63;;;3.10;;
1569;SDS011;778;50.120;8.698;2023-05-10T09:32:38;4.27;;;2.53;;
1569;SDS011;778;50.120;8.698;2023-05-10T09:35:08;3.50;;;2.63;;
1569;SDS011;778;50.120;8.698;2023-05-10T09:37:38;2.60;;;2.33;;
1569;SDS011;778;50.120;8.698;2023-05-10T09:40:11;2.50;;;2.30;;
1569;SDS011;778;50.120;8.698;2023-05-10T09:42:50;3.27;;;2.33;;
1569;SDS011;778;50.120;8.698;2023-05-10T09:45:21;4.33;;;2.73;;
1569;SDS011;778;50.120;8.698;2023-05-10T09:47:50;3.97;;;2.77;;
1569;SDS011;778;50.120;8.698;2023-05-10T09:50:19;3.03;;;2.27;;
1569;SDS011;778;50.120;8.698;2023-05-10T09:52:50;5.90;;;2.80;;
1569;SDS011;778;50.120;8.698;2023-05-10T09:55:20;6.53;;;2.20;;
1569;SDS011;778;50.120;8.698;2023-05-10T09:57:59;6.47;;;1.63;;
1569;SDS011;778;50.120;8.698;2023-05-10T10:00:33;3.47;;;1.90;;
1569;SDS011;778;50.120;8.698;2023-05-10T10:03:04;1.90;;;1.70;;
1569;SDS011;778;50.120;8.698;2023-05-10T10:05:33;1.83;;;1.40;;
1569;SDS011;778;50.120;8.698;2023-05-10T10:08:04;3.10;;;1.40;;
1569;SDS011;778;50.120;8.698;2023-05-10T10:10:33;1.83;;;1.60;;
1569;SDS011;778;50.120;8.698;2023-05-10T10:13:03;3.27;;;1.67;;
1569;SDS011;778;50.120;8.698;2023-05-10T10:15:32;2.27;;;2.07;;
1569;SDS011;778;50.120;8.698;2023-05-10T10:18:02;3.63;;;2.37;;
1569;SDS011;778;50.120;8.698;2023-05-10T10:20:32;9.57;;;3.80;;
1569;SDS011;778;50.120;8.698;2023-05-10T10:23:00;4.60;;;2.80;;
1569;SDS011;778;50.120;8.698;2023-05-10T10:25:29;4.80;;;2.60;;
1569;SDS011;778;50.120;8.698;2023-05-10T10:28:01;2.80;;;2.50;;
1569;SDS011;778;50.120;8.698;2023-05-10T10:30:45;3.13;;;2.03;;
1569;SDS011;778;50.120;8.698;2023-05-10T10:33:27;2.60;;;2.40;;
1569;SDS011;778;50.120;8.698;2023-05-10T10:36:14;3.90;;;2.77;;
1569;SDS011;778;50.120;8.698;2023-05-10T10:38:56;3.10;;;2.00;;
1569;SDS011;778;50.120;8.698;2023-05-10T10:41:30;2.30;;;2.10;;
1569;SDS011;778;50.120;8.698;2023-05-10T10:47:02;2.33;;;2.17;;
1569;SDS011;778;50.120;8.698;2023-05-10T10:49:38;4.43;;;2.50;;
1569;SDS011;778;50.120;8.698;2023-05-10T10:52:13;6.63;;;2.50;;
1569;SDS011;778;50.120;8.698;2023-05-10T10:54:59;3.00;;;2.10;;
1569;SDS011;778;50.120;8.698;2023-05-10T10:57:42;4.70;;;1.90;;
1569;SDS011;778;50.120;8.698;2023-05-10T11:00:21;3.23;;;1.90;;
1569;SDS011;778;50.120;8.698;2023-05-10T11:02:56;1.67;;;1.37;;
1569;SDS011;778;50.120;8.698;2023-05-10T11:05:33;2.93;;;1.50;;
1569;SDS011;778;50.120;8.698;2023-05-10T11:08:10;4.03;;;1.40;;
1569;SDS011;778;50.120;8.698;2023-05-10T11:10:49;3.37;;;1.50;;
1569;SDS011;778;50.120;8.698;2023-05-10T11:13:26;2.13;;;1.50;;
1569;SDS011;778;50.120;8.698;2023-05-10T11:15:58;1.70;;;1.60;;
1569;SDS011;778;50.120;8.698;2023-05-10T11:18:37;2.00;;;1.00;;
1569;SDS011;778;50.120;8.698;2023-05-10T11:21:08;3.03;;;1.40;;
1569;SDS011;778;50.120;8.698;2023-05-10T11:23:50;2.23;;;1.40;;
1569;SDS011;778;50.120;8.698;2023-05-10T11:26:24;1.53;;;1.40;;
1569;SDS011;778;50.120;8.698;2023-05-10T11:28:55;3.43;;;1.40;;
1569;SDS011;778;50.120;8.698;2023-05-10T11:31:26;1.60;;;1.50;;
1569;SDS011;778;50.120;8.698;2023-05-10T11:33:56;2.10;;;1.40;;
1569;SDS011;778;50.120;8.698;2023-05-10T11:36:28;1.30;;;1.20;;
1569;SDS011;778;50.120;8.698;2023-05-10T11:39:00;2.30;;;1.47;;
1569;SDS011;778;50.120;8.698;2023-05-10T11:41:29;2.40;;;1.17;;
1569;SDS011;778;50.120;8.698;2023-05-10T11:43:58;6.60;;;2.07;;
1569;SDS011;778;50.120;8.698;2023-05-10T11:46:28;1.60;;;1.50;;
1569;SDS011;778;50.120;8.698;2023-05-10T11:48:57;1.97;;;1.53;;
1569;SDS011;778;50.120;8.698;2023-05-10T11:51:32;1.90;;;1.40;;
1569;SDS011;778;50.120;8.698;2023-05-10T11:54:06;1.60;;;1.40;;
1569;SDS011;778;50.120;8.698;2023-05-10T11:56:37;2.83;;;1.70;;
1569;SDS011;778;50.120;8.698;2023-05-10T11:59:06;2.40;;;1.30;;
1569;SDS011;778;50.120;8.698;2023-05-10T12:01:39;1.80;;;1.70;;
1569;SDS011;778;50.120;8.698;2023-05-10T12:04:20;3.10;;;2.50;;
1569;SDS011;778;50.120;8.698;2023-05-10T12:06:50;2.33;;;2.13;;
1569;SDS011;778;50.120;8.698;2023-05-10T12:09:20;2.17;;;1.70;;
1569;SDS011;778;50.120;8.698;2023-05-10T12:12:05;1.97;;;1.77;;
1569;SDS011;778;50.120;8.698;2023-05-10T12:14:34;1.80;;;1.70;;
1569;SDS011;778;50.120;8.698;2023-05-10T12:17:05;1.80;;;1.70;;
1569;SDS011;778;50.120;8.698;2023-05-10T12:19:39;3.93;;;2.20;;
1569;SDS011;778;50.120;8.698;2023-05-10T12:22:10;3.03;;;1.87;;
1569;SDS011;778;50.120;8.698;2023-05-10T12:24:38;4.30;;;2.03;;
1569;SDS011;778;50.120;8.698;2023-05-10T12:27:07;3.23;;;2.50;;
1569;SDS011;778;50.120;8.698;2023-05-10T12:29:36;2.50;;;2.30;;
1569;SDS011;778;50.120;8.698;2023-05-10T12:32:14;4.60;;;2.27;;
1569;SDS011;778;50.120;8.698;2023-05-10T12:34:42;2.20;;;2.10;;
1569;SDS011;778;50.120;8.698;2023-05-10T12:37:16;4.10;;;1.87;;
1569;SDS011;778;50.120;8.698;2023-05-10T12:39:45;3.57;;;2.40;;
1569;SDS011;778;50.120;8.698;2023-05-10T12:42:13;2.73;;;2.03;;
1569;SDS011;778;50.120;8.698;2023-05-10T12:44:42;2.60;;;2.40;;
1569;SDS011;778;50.120;8.698;2023-05-10T12:47:10;2.20;;;2.00;;
1569;SDS011;778;50.120;8.698;2023-05-10T12:49:40;1.50;;;1.40;;
1569;SDS011;778;50.120;8.698;2023-05-10T12:52:08;1.63;;;1.20;;
1569;SDS011;778;50.120;8.698;2023-05-10T12:54:37;1.33;;;1.27;;
1569;SDS011;778;50.120;8.698;2023-05-10T12:57:05;2.97;;;1.70;;
1569;SDS011;778;50.120;8.698;2023-05-10T12:59:34;5.47;;;1.80;;
1569;SDS011;778;50.120;8.698;2023-05-10T13:02:03;3.13;;;1.83;;
1569;SDS011;778;50.120;8.698;2023-05-10T13:04:32;2.60;;;2.30;;
1569;SDS011;778;50.120;8.698;2023-05-10T13:07:02;2.63;;;2.00;;
1569;SDS011;778;50.120;8.698;2023-05-10T13:09:30;2.47;;;2.10;;
1569;SDS011;778;50.120;8.698;2023-05-10T13:11:58;3.07;;;1.50;;
1569;SDS011;778;50.120;8.698;2023-05-10T13:14:27;1.50;;;1.40;;
1569;SDS011;778;50.120;8.698;2023-05-10T13:16:57;3.00;;;1.57;;
1569;SDS011;778;50.120;8.698;2023-05-10T13:19:26;3.60;;;1.63;;
1569;SDS011;778;50.120;8.698;2023-05-10T13:21:54;2.50;;;1.43;;
1569;SDS011;778;50.120;8.698;2023-05-10T13:24:24;2.07;;;1.53;;
1569;SDS011;778;50.120;8.698;2023-05-10T13:26:52;2.90;;;1.40;;
1569;SDS011;778;50.120;8.698;2023-05-10T13:29:20;2.93;;;1.47;;
1569;SDS011;778;50.120;8.698;2023-05-10T13:31:49;2.03;;;1.90;;
1569;SDS011;778;50.120;8.698;2023-05-10T13:34:17;1.87;;;1.50;;
1569;SDS011;778;50.120;8.698;2023-05-10T13:36:47;1.93;;;1.40;;
1569;SDS011;778;50.120;8.698;2023-05-10T13:39:16;3.00;;;1.30;;
1569;SDS011;778;50.120;8.698;2023-05-10T13:41:45;1.47;;;1.10;;
1569;SDS011;778;50.120;8.698;2023-05-10T13:44:14;1.20;;;1.00;;
1569;SDS011;778;50.120;8.698;2023-05-10T13:46:43;1.40;;;1.30;;
1569;SDS011;778;50.120;8.698;2023-05-10T13:49:11;4.60;;;1.70;;
1569;SDS011;778;50.120;8.698;2023-05-10T13:51:40;3.53;;;2.20;;
1569;SDS011;778;50.120;8.698;2023-05-10T13:54:08;1.87;;;1.60;;
1569;SDS011;778;50.120;8.698;2023-05-10T13:56:39;2.27;;;2.17;;
1569;SDS011;778;50.120;8.698;2023-05-10T13:59:10;3.03;;;2.47;;
1569;SDS011;778;50.120;8.698;2023-05-10T14:01:38;2.10;;;1.87;;
1569;SDS011;778;50.120;8.698;2023-05-10T14:04:07;1.70;;;1.47;;
1569;SDS011;778;50.120;8.698;2023-05-10T14:06:36;2.27;;;1.23;;
1569;SDS011;778;50.120;8.698;2023-05-10T14:09:05;2.17;;;1.30;;
1569;SDS011;778;50.120;8.698;2023-05-10T14:11:33;1.70;;;1.60;;
1569;SDS011;778;50.120;8.698;2023-05-10T14:14:02;1.60;;;1.10;;
1569;SDS011;778;50.120;8.698;2023-05-10T14:16:32;3.07;;;1.10;;
1569;SDS011;778;50.120;8.698;2023-05-10T14:19:00;1.40;;;1.30;;
1569;SDS011;778;50.120;8.698;2023-05-10T14:21:29;1.23;;;0.87;;
1569;SDS011;778;50.120;8.698;2023-05-10T14:23:58;1.00;;;0.90;;
1569;SDS011;778;50.120;8.698;2023-05-10T14:26:26;1.40;;;0.90;;
1569;SDS011;778;50.120;8.698;2023-05-10T14:28:54;2.60;;;1.20;;
1569;SDS011;778;50.120;8.698;2023-05-10T14:31:23;3.67;;;1.30;;
1569;SDS011;778;50.120;8.698;2023-05-10T14:33:53;1.87;;;1.10;;
1569;SDS011;778;50.120;8.698;2023-05-10T14:36:22;0.90;;;0.80;;
1569;SDS011;778;50.120;8.698;2023-05-10T14:38:50;1.57;;;0.97;;
1569;SDS011;778;50.120;8.698;2023-05-10T14:41:18;1.53;;;1.40;;
1569;SDS011;778;50.120;8.698;2023-05-10T14:43:47;1.47;;;1.23;;
1569;SDS011;778;50.120;8.698;2023-05-10T14:46:15;3.40;;;1.57;;
1569;SDS011;778;50.120;8.698;2023-05-10T14:48:44;1.50;;;1.40;;
1569;SDS011;778;50.120;8.698;2023-05-10T14:51:14;2.77;;;1.80;;
1569;SDS011;778;50.120;8.698;2023-05-10T14:53:42;2.10;;;1.50;;
1569;SDS011;778;50.120;8.698;2023-05-10T14:56:11;1.47;;;1.30;;
1569;SDS011;778;50.120;8.698;2023-05-10T14:58:40;1.80;;;1.70;;
1569;SDS011;778;50.120;8.698;2023-05-10T15:01:09;3.57;;;1.00;;
1569;SDS011;778;50.120;8.698;2023-05-10T15:03:37;2.30;;;1.03;;
1569;SDS011;778;50.120;8.698;2023-05-10T15:06:07;3.93;;;1.33;;
1569;SDS011;778;50.120;8.698;2023-05-10T15:08:38;1.57;;;1.33;;
1569;SDS011;778;50.120;8.698;2023-05-10T15:11:06;1.27;;;1.00;;
1569;SDS011;778;50.120;8.698;2023-05-10T15:13:35;1.87;;;1.00;;
1569;SDS011;778;50.120;8.698;2023-05-10T15:16:03;3.07;;;1.10;;
1569;SDS011;778;50.120;8.698;2023-05-10T15:18:32;2.37;;;1.63;;
1569;SDS011;778;50.120;8.698;2023-05-10T15:21:01;3.17;;;1.67;;
1569;SDS011;778;50.120;8.698;2023-05-10T15:23:29;2.00;;;1.40;;
1569;SDS011;778;50.120;8.698;2023-05-10T15:25:59;4.27;;;1.40;;
1569;SDS011;778;50.120;8.698;2023-05-10T15:28:29;3.00;;;1.67;;
1569;SDS011;778;50.120;8.698;2023-05-10T15:30:59;4.80;;;1.40;;
1569;SDS011;778;50.120;8.698;2023-05-10T15:33:28;2.27;;;1.90;;
1569;SDS011;778;50.120;8.698;2023-05-10T15:35:56;2.20;;;2.00;;
1569;SDS011;778;50.120;8.698;2023-05-10T15:38:24;3.33;;;1.70;;
1569;SDS011;778;50.120;8.698;2023-05-10T15:40:55;2.60;;;1.03;;
1569;SDS011;778;50.120;8.698;2023-05-10T15:43:26;2.03;;;1.80;;
1569;SDS011;778;50.120;8.698;2023-05-10T15:45:54;1.50;;;1.20;;
1569;SDS011;778;50.120;8.698;2023-05-10T15:48:23;1.83;;;1.40;;
1569;SDS011;778;50.120;8.698;2023-05-10T15:50:51;4.13;;;1.37;;
1569;SDS011;778;50.120;8.698;2023-05-10T15:53:20;3.07;;;2.20;;